sensor_id;sensor_type;location;lat;lon;timestamp;temperature;humidity
13375;DHT22;6756;51.354;15.754;2023-03-01T00:02:20;-6.60;44.30
13375;DHT22;6756;51.354;15.754;2023-03-01T00:06:21;-6.70;99.90
13375;DHT22;6756;51.354;15.754;2023-03-01T00:10:22;-6.70;99.90
13375;DHT22;6756;51.354;15.754;2023-03-01T00:14:23;-6.70;1.00
13375;DHT22;6756;51.354;15.754;2023-03-01T00:18:24;-6.70;86.00
13375;DHT22;6756;51.354;15.754;2023-03-01T00:22:26;-6.70;1.00
13375;DHT22;6756;51.354;15.754;2023-03-01T00:26:28;-6.80;99.90
13375;DHT22;6756;51.354;15.754;2023-03-01T00:30:30;-6.80;1.00
13375;DHT22;6756;51.354;15.754;2023-03-01T00:34:30;-6.90;99.90
13375;DHT22;6756;51.354;15.754;2023-03-01T00:38:38;-6.90;99.90
13375;DHT22;6756;51.354;15.754;2023-03-01T00:42:39;-6.90;99.90
13375;DHT22;6756;51.354;15.754;2023-03-01T00:46:40;-6.90;99.90
13375;DHT22;6756;51.354;15.754;2023-03-01T00:50:41;-6.90;99.90
13375;DHT22;6756;51.354;15.754;2023-03-01T00:54:42;-6.90;36.40
13375;DHT22;6756;51.354;15.754;2023-03-01T00:58:43;-7.00;1.00
13375;DHT22;6756;51.354;15.754;2023-03-01T01:02:44;-7.10;99.90
13375;DHT22;6756;51.354;15.754;2023-03-01T01:06:46;-7.10;1.00
13375;DHT22;6756;51.354;15.754;2023-03-01T01:10:47;-7.20;99.90
13375;DHT22;6756;51.354;15.754;2023-03-01T01:14:48;-7.20;99.90
13375;DHT22;6756;51.354;15.754;2023-03-01T01:18:49;-7.20;99.90
13375;DHT22;6756;51.354;15.754;2023-03-01T01:22:50;-7.20;1.00
13375;DHT22;6756;51.354;15.754;2023-03-01T01:26:51;-7.20;1.00
13375;DHT22;6756;51.354;15.754;2023-03-01T01:30:52;-7.10;99.90
13375;DHT22;6756;51.354;15.754;2023-03-01T01:34:53;-7.00;1.00
13375;DHT22;6756;51.354;15.754;2023-03-01T01:38:54;-7.10;44.10
13375;DHT22;6756;51.354;15.754;2023-03-01T01:42:55;-7.20;99.90
13375;DHT22;6756;51.354;15.754;2023-03-01T01:47:02;-7.20;1.00
13375;DHT22;6756;51.354;15.754;2023-03-01T01:51:04;-7.30;99.90
13375;DHT22;6756;51.354;15.754;2023-03-01T01:55:08;-7.40;99.90
13375;DHT22;6756;51.354;15.754;2023-03-01T01:59:11;-7.40;99.90
13375;DHT22;6756;51.354;15.754;2023-03-01T02:03:17;-7.40;1.00
13375;DHT22;6756;51.354;15.754;2023-03-01T02:07:23;-7.40;99.90
13375;DHT22;6756;51.354;15.754;2023-03-01T02:11:25;-7.50;99.90
13375;DHT22;6756;51.354;15.754;2023-03-01T02:15:32;-7.50;1.00
13375;DHT22;6756;51.354;15.754;2023-03-01T02:19:50;-7.50;1.00
13375;DHT22;6756;51.354;15.754;2023-03-01T02:23:53;-7.50;1.00
13375;DHT22;6756;51.354;15.754;2023-03-01T02:32:20;-7.50;90.60
13375;DHT22;6756;51.354;15.754;2023-03-01T02:36:29;-7.60;1.00
13375;DHT22;6756;51.354;15.754;2023-03-01T02:40:30;-7.60;1.00
13375;DHT22;6756;51.354;15.754;2023-03-01T02:44:31;-7.60;99.90
13375;DHT22;6756;51.354;15.754;2023-03-01T02:48:50;-7.70;99.90
13375;DHT22;6756;51.354;15.754;2023-03-01T02:57:02;-7.80;9.90
13375;DHT22;6756;51.354;15.754;2023-03-01T03:01:04;-7.80;1.00
13375;DHT22;6756;51.354;15.754;2023-03-01T03:05:11;-7.80;1.00
13375;DHT22;6756;51.354;15.754;2023-03-01T03:09:13;-7.80;1.00
13375;DHT22;6756;51.354;15.754;2023-03-01T03:13:14;-7.90;1.00
13375;DHT22;6756;51.354;15.754;2023-03-01T03:17:15;-7.90;1.00
13375;DHT22;6756;51.354;15.754;2023-03-01T03:21:16;-7.90;1.00
13375;DHT22;6756;51.354;15.754;2023-03-01T03:25:18;-7.80;1.00
13375;DHT22;6756;51.354;15.754;2023-03-01T03:29:18;-7.80;24.10
13375;DHT22;6756;51.354;15.754;2023-03-01T03:33:19;-7.80;1.00
13375;DHT22;6756;51.354;15.754;2023-03-01T03:37:20;-7.80;1.00
13375;DHT22;6756;51.354;15.754;2023-03-01T03:41:39;-7.90;99.90
13375;DHT22;6756;51.354;15.754;2023-03-01T03:45:40;-8.00;99.90
13375;DHT22;6756;51.354;15.754;2023-03-01T03:49:41;-8.00;1.00
13375;DHT22;6756;51.354;15.754;2023-03-01T03:53:43;-8.10;1.00
13375;DHT22;6756;51.354;15.754;2023-03-01T03:57:43;-8.10;1.00
13375;DHT22;6756;51.354;15.754;2023-03-01T04:01:44;-8.20;1.00
13375;DHT22;6756;51.354;15.754;2023-03-01T04:05:46;-8.20;1.00
13375;DHT22;6756;51.354;15.754;2023-03-01T04:09:47;-8.20;1.00
13375;DHT22;6756;51.354;15.754;2023-03-01T04:13:48;-8.20;1.00
13375;DHT22;6756;51.354;15.754;2023-03-01T04:17:51;-8.20;1.00
13375;DHT22;6756;51.354;15.754;2023-03-01T04:21:52;-8.20;1.00
13375;DHT22;6756;51.354;15.754;2023-03-01T04:25:55;-8.30;1.00
13375;DHT22;6756;51.354;15.754;2023-03-01T04:29:57;-8.20;1.00
13375;DHT22;6756;51.354;15.754;2023-03-01T04:33:57;-8.20;1.00
13375;DHT22;6756;51.354;15.754;2023-03-01T04:37:59;-8.20;99.90
13375;DHT22;6756;51.354;15.754;2023-03-01T04:41:59;-8.20;10.50
13375;DHT22;6756;51.354;15.754;2023-03-01T04:46:02;-8.20;1.00
13375;DHT22;6756;51.354;15.754;2023-03-01T04:50:03;-8.30;99.90
13375;DHT22;6756;51.354;15.754;2023-03-01T04:54:04;-8.40;1.00
13375;DHT22;6756;51.354;15.754;2023-03-01T04:58:09;-8.40;99.90
13375;DHT22;6756;51.354;15.754;2023-03-01T05:02:10;-8.40;1.00
13375;DHT22;6756;51.354;15.754;2023-03-01T05:06:11;-8.50;1.00
13375;DHT22;6756;51.354;15.754;2023-03-01T05:10:12;-8.50;99.90
13375;DHT22;6756;51.354;15.754;2023-03-01T05:14:12;-8.50;99.90
13375;DHT22;6756;51.354;15.754;2023-03-01T05:18:14;-8.50;99.90
13375;DHT22;6756;51.354;15.754;2023-03-01T05:22:14;-8.50;99.90
13375;DHT22;6756;51.354;15.754;2023-03-01T05:26:17;-8.50;99.90
13375;DHT22;6756;51.354;15.754;2023-03-01T05:30:18;-8.60;99.90
13375;DHT22;6756;51.354;15.754;2023-03-01T05:34:26;-8.60;99.90
13375;DHT22;6756;51.354;15.754;2023-03-01T05:38:27;-8.60;99.90
13375;DHT22;6756;51.354;15.754;2023-03-01T05:42:28;-8.70;99.90
13375;DHT22;6756;51.354;15.754;2023-03-01T05:46:29;-8.70;99.90
13375;DHT22;6756;51.354;15.754;2023-03-01T05:50:32;-8.70;99.90
13375;DHT22;6756;51.354;15.754;2023-03-01T05:54:34;-8.60;99.90
13375;DHT22;6756;51.354;15.754;2023-03-01T05:58:35;-8.60;99.90
13375;DHT22;6756;51.354;15.754;2023-03-01T06:02:35;-8.50;99.90
13375;DHT22;6756;51.354;15.754;2023-03-01T06:06:37;-8.40;99.90
13375;DHT22;6756;51.354;15.754;2023-03-01T06:10:38;-8.20;1.00
13375;DHT22;6756;51.354;15.754;2023-03-01T06:14:39;-8.00;1.00
13375;DHT22;6756;51.354;15.754;2023-03-01T06:18:41;-7.90;1.00
13375;DHT22;6756;51.354;15.754;2023-03-01T06:22:42;-7.70;65.00
13375;DHT22;6756;51.354;15.754;2023-03-01T06:26:43;-7.60;99.90
13375;DHT22;6756;51.354;15.754;2023-03-01T06:30:44;-7.40;99.90
13375;DHT22;6756;51.354;15.754;2023-03-01T06:34:45;-7.30;1.00
13375;DHT22;6756;51.354;15.754;2023-03-01T06:38:46;-7.20;1.00
13375;DHT22;6756;51.354;15.754;2023-03-01T06:42:50;-7.00;99.90
13375;DHT22;6756;51.354;15.754;2023-03-01T06:46:51;-6.80;1.00
13375;DHT22;6756;51.354;15.754;2023-03-01T06:50:52;-6.60;99.90
13375;DHT22;6756;51.354;15.754;2023-03-01T06:54:53;-6.30;99.90
13375;DHT22;6756;51.354;15.754;2023-03-01T06:58:53;-6.00;99.90
13375;DHT22;6756;51.354;15.754;2023-03-01T07:02:54;-5.70;99.90
13375;DHT22;6756;51.354;15.754;2023-03-01T07:06:58;-5.30;99.90
13375;DHT22;6756;51.354;15.754;2023-03-01T07:10:59;-5.00;1.00
13375;DHT22;6756;51.354;15.754;2023-03-01T07:15:02;-4.70;1.00
13375;DHT22;6756;51.354;15.754;2023-03-01T07:19:04;-4.30;99.90
13375;DHT22;6756;51.354;15.754;2023-03-01T07:23:06;-4.00;1.00
13375;DHT22;6756;51.354;15.754;2023-03-01T07:27:07;-3.70;26.90
13375;DHT22;6756;51.354;15.754;2023-03-01T07:31:08;-3.30;99.90
13375;DHT22;6756;51.354;15.754;2023-03-01T07:35:08;-3.00;99.90
13375;DHT22;6756;51.354;15.754;2023-03-01T07:39:10;-2.80;99.90
13375;DHT22;6756;51.354;15.754;2023-03-01T07:43:11;-2.50;99.90
13375;DHT22;6756;51.354;15.754;2023-03-01T07:47:12;-2.30;99.90
13375;DHT22;6756;51.354;15.754;2023-03-01T07:51:13;-2.10;99.90
13375;DHT22;6756;51.354;15.754;2023-03-01T07:55:15;-1.90;99.90
13375;DHT22;6756;51.354;15.754;2023-03-01T07:59:16;-1.70;25.00
13375;DHT22;6756;51.354;15.754;2023-03-01T08:03:17;-1.60;99.90
13375;DHT22;6756;51.354;15.754;2023-03-01T08:07:18;-1.40;99.90
13375;DHT22;6756;51.354;15.754;2023-03-01T08:11:18;-1.20;99.90
13375;DHT22;6756;51.354;15.754;2023-03-01T08:15:19;-1.00;99.90
13375;DHT22;6756;51.354;15.754;2023-03-01T08:19:20;-0.80;99.90
13375;DHT22;6756;51.354;15.754;2023-03-01T08:23:21;-0.60;99.90
13375;DHT22;6756;51.354;15.754;2023-03-01T08:27:22;-0.50;1.00
13375;DHT22;6756;51.354;15.754;2023-03-01T08:31:32;-0.40;99.90
13375;DHT22;6756;51.354;15.754;2023-03-01T08:35:33;-0.30;1.00
13375;DHT22;6756;51.354;15.754;2023-03-01T08:39:34;-0.20;99.90
13375;DHT22;6756;51.354;15.754;2023-03-01T08:43:35;0.00;99.90
13375;DHT22;6756;51.354;15.754;2023-03-01T08:47:36;0.10;70.70
13375;DHT22;6756;51.354;15.754;2023-03-01T08:51:37;0.30;1.00
13375;DHT22;6756;51.354;15.754;2023-03-01T08:55:38;0.60;1.00
13375;DHT22;6756;51.354;15.754;2023-03-01T08:59:39;0.70;99.90
13375;DHT22;6756;51.354;15.754;2023-03-01T09:03:41;0.90;1.00
13375;DHT22;6756;51.354;15.754;2023-03-01T09:07:42;0.90;99.90
13375;DHT22;6756;51.354;15.754;2023-03-01T09:11:44;1.00;99.90
13375;DHT22;6756;51.354;15.754;2023-03-01T09:15:46;1.20;99.90
13375;DHT22;6756;51.354;15.754;2023-03-01T09:19:47;1.40;99.90
13375;DHT22;6756;51.354;15.754;2023-03-01T09:23:49;1.50;99.90
13375;DHT22;6756;51.354;15.754;2023-03-01T09:27:53;1.60;99.90
13375;DHT22;6756;51.354;15.754;2023-03-01T09:31:54;1.80;99.90
13375;DHT22;6756;51.354;15.754;2023-03-01T09:36:07;2.00;99.90
13375;DHT22;6756;51.354;15.754;2023-03-01T09:40:12;2.20;85.80
13375;DHT22;6756;51.354;15.754;2023-03-01T09:49:02;2.50;48.00
13375;DHT22;6756;51.354;15.754;2023-03-01T09:53:06;2.70;38.20
13375;DHT22;6756;51.354;15.754;2023-03-01T09:57:45;2.90;24.00
13375;DHT22;6756;51.354;15.754;2023-03-01T10:02:01;3.10;8.50
13375;DHT22;6756;51.354;15.754;2023-03-01T10:06:34;3.20;5.10
13375;DHT22;6756;51.354;15.754;2023-03-01T10:10:38;3.30;4.60
13375;DHT22;6756;51.354;15.754;2023-03-01T10:14:44;3.50;1.00
13375;DHT22;6756;51.354;15.754;2023-03-01T10:18:55;3.50;1.00
13375;DHT22;6756;51.354;15.754;2023-03-01T10:22:57;3.70;1.00
13375;DHT22;6756;51.354;15.754;2023-03-01T10:27:04;3.80;1.00
13375;DHT22;6756;51.354;15.754;2023-03-01T10:31:13;3.90;1.00
13375;DHT22;6756;51.354;15.754;2023-03-01T10:35:28;4.00;1.00
13375;DHT22;6756;51.354;15.754;2023-03-01T10:39:29;4.10;1.00
13375;DHT22;6756;51.354;15.754;2023-03-01T10:43:49;4.20;1.00
13375;DHT22;6756;51.354;15.754;2023-03-01T10:52:22;4.40;1.00
13375;DHT22;6756;51.354;15.754;2023-03-01T10:56:23;4.50;1.00
13375;DHT22;6756;51.354;15.754;2023-03-01T11:00:26;4.60;1.00
13375;DHT22;6756;51.354;15.754;2023-03-01T11:04:28;4.60;1.00
13375;DHT22;6756;51.354;15.754;2023-03-01T11:12:34;4.70;1.00
13375;DHT22;6756;51.354;15.754;2023-03-01T11:16:37;4.80;1.00
13375;DHT22;6756;51.354;15.754;2023-03-01T11:20:39;4.90;1.00
13375;DHT22;6756;51.354;15.754;2023-03-01T11:24:54;5.10;1.00
13375;DHT22;6756;51.354;15.754;2023-03-01T11:28:58;5.20;1.00
13375;DHT22;6756;51.354;15.754;2023-03-01T11:41:32;5.50;1.00
13375;DHT22;6756;51.354;15.754;2023-03-01T11:55:07;5.70;1.00
13375;DHT22;6756;51.354;15.754;2023-03-01T12:29:19;6.00;1.00
13375;DHT22;6756;51.354;15.754;2023-03-01T12:47:20;6.20;1.00
13375;DHT22;6756;51.354;15.754;2023-03-01T12:51:26;6.20;1.00
13375;DHT22;6756;51.354;15.754;2023-03-01T12:55:41;6.30;1.00
13375;DHT22;6756;51.354;15.754;2023-03-01T13:00:03;6.30;1.00
13375;DHT22;6756;51.354;15.754;2023-03-01T13:04:15;6.40;1.00
13375;DHT22;6756;51.354;15.754;2023-03-01T13:08:47;6.50;1.00
13375;DHT22;6756;51.354;15.754;2023-03-01T13:16:51;6.50;1.00
13375;DHT22;6756;51.354;15.754;2023-03-01T13:20:58;6.60;1.00
13375;DHT22;6756;51.354;15.754;2023-03-01T13:25:19;6.60;1.00
13375;DHT22;6756;51.354;15.754;2023-03-01T13:29:27;6.60;1.00
13375;DHT22;6756;51.354;15.754;2023-03-01T13:37:36;6.60;1.00
13375;DHT22;6756;51.354;15.754;2023-03-01T13:45:43;6.60;1.00
13375;DHT22;6756;51.354;15.754;2023-03-01T13:49:51;6.60;1.00
13375;DHT22;6756;51.354;15.754;2023-03-01T13:53:54;6.50;1.00
13375;DHT22;6756;51.354;15.754;2023-03-01T13:57:58;6.50;1.00
13375;DHT22;6756;51.354;15.754;2023-03-01T14:02:00;6.60;1.00
13375;DHT22;6756;51.354;15.754;2023-03-01T14:06:07;6.60;1.00
13375;DHT22;6756;51.354;15.754;2023-03-01T14:10:12;6.60;1.00
13375;DHT22;6756;51.354;15.754;2023-03-01T14:14:34;6.50;1.00
13375;DHT22;6756;51.354;15.754;2023-03-01T14:18:47;6.50;1.00
13375;DHT22;6756;51.354;15.754;2023-03-01T14:22:55;6.40;1.00
13375;DHT22;6756;51.354;15.754;2023-03-01T14:26:57;6.30;1.00
13375;DHT22;6756;51.354;15.754;2023-03-01T14:30:59;6.30;1.00
13375;DHT22;6756;51.354;15.754;2023-03-01T14:35:01;6.20;1.00
13375;DHT22;6756;51.354;15.754;2023-03-01T14:39:16;6.20;1.00
13375;DHT22;6756;51.354;15.754;2023-03-01T14:43:21;6.20;1.00
13375;DHT22;6756;51.354;15.754;2023-03-01T14:47:32;6.10;1.00
13375;DHT22;6756;51.354;15.754;2023-03-01T14:51:38;6.00;1.00
13375;DHT22;6756;51.354;15.754;2023-03-01T14:55:42;6.00;1.00
13375;DHT22;6756;51.354;15.754;2023-03-01T14:59:45;6.00;1.00
13375;DHT22;6756;51.354;15.754;2023-03-01T15:03:49;5.90;1.00
13375;DHT22;6756;51.354;15.754;2023-03-01T15:07:51;5.90;1.00
13375;DHT22;6756;51.354;15.754;2023-03-01T15:11:52;5.90;1.00
13375;DHT22;6756;51.354;15.754;2023-03-01T15:16:01;5.80;1.00
13375;DHT22;6756;51.354;15.754;2023-03-01T15:20:06;5.70;1.00
13375;DHT22;6756;51.354;15.754;2023-03-01T15:24:23;5.60;1.00
13375;DHT22;6756;51.354;15.754;2023-03-01T15:28:39;5.50;1.00
13375;DHT22;6756;51.354;15.754;2023-03-01T15:32:41;5.40;1.00
13375;DHT22;6756;51.354;15.754;2023-03-01T15:36:45;5.40;1.00
13375;DHT22;6756;51.354;15.754;2023-03-01T15:40:50;5.30;1.00
13375;DHT22;6756;51.354;15.754;2023-03-01T15:45:08;5.30;1.00
13375;DHT22;6756;51.354;15.754;2023-03-01T15:53:32;5.00;1.00
13375;DHT22;6756;51.354;15.754;2023-03-01T15:57:33;4.80;1.00
13375;DHT22;6756;51.354;15.754;2023-03-01T16:01:34;4.60;1.00
13375;DHT22;6756;51.354;15.754;2023-03-01T16:05:35;4.30;1.00
13375;DHT22;6756;51.354;15.754;2023-03-01T16:09:36;4.10;1.00
13375;DHT22;6756;51.354;15.754;2023-03-01T16:13:37;3.90;1.00
13375;DHT22;6756;51.354;15.754;2023-03-01T16:17:38;3.60;1.00
13375;DHT22;6756;51.354;15.754;2023-03-01T16:21:39;3.40;1.00
13375;DHT22;6756;51.354;15.754;2023-03-01T16:25:40;3.00;1.00
13375;DHT22;6756;51.354;15.754;2023-03-01T16:29:41;2.70;1.00
13375;DHT22;6756;51.354;15.754;2023-03-01T16:33:42;2.30;1.00
13375;DHT22;6756;51.354;15.754;2023-03-01T16:37:43;1.90;1.00
13375;DHT22;6756;51.354;15.754;2023-03-01T16:41:44;1.60;1.00
13375;DHT22;6756;51.354;15.754;2023-03-01T16:45:44;1.20;1.00
13375;DHT22;6756;51.354;15.754;2023-03-01T16:49:46;0.90;1.00
13375;DHT22;6756;51.354;15.754;2023-03-01T16:53:47;0.60;1.00
13375;DHT22;6756;51.354;15.754;2023-03-01T16:57:49;0.30;1.00
13375;DHT22;6756;51.354;15.754;2023-03-01T17:01:52;0.00;1.00
13375;DHT22;6756;51.354;15.754;2023-03-01T17:05:53;-0.20;1.50
13375;DHT22;6756;51.354;15.754;2023-03-01T17:09:54;-0.40;20.70
13375;DHT22;6756;51.354;15.754;2023-03-01T17:13:55;-0.50;32.20
13375;DHT22;6756;51.354;15.754;2023-03-01T17:17:56;-0.70;44.80
13375;DHT22;6756;51.354;15.754;2023-03-01T17:21:56;-0.90;57.60
13375;DHT22;6756;51.354;15.754;2023-03-01T17:25:58;-1.10;76.70
13375;DHT22;6756;51.354;15.754;2023-03-01T17:29:59;-1.30;94.30
13375;DHT22;6756;51.354;15.754;2023-03-01T17:33:59;-1.50;99.90
13375;DHT22;6756;51.354;15.754;2023-03-01T17:38:00;-1.70;99.90
13375;DHT22;6756;51.354;15.754;2023-03-01T17:42:02;-1.80;99.90
13375;DHT22;6756;51.354;15.754;2023-03-01T17:46:04;-2.00;99.90
13375;DHT22;6756;51.354;15.754;2023-03-01T17:50:05;-2.10;99.90
13375;DHT22;6756;51.354;15.754;2023-03-01T17:54:07;-2.20;99.90
13375;DHT22;6756;51.354;15.754;2023-03-01T17:58:10;-2.30;99.90
13375;DHT22;6756;51.354;15.754;2023-03-01T18:02:12;-2.40;99.90
13375;DHT22;6756;51.354;15.754;2023-03-01T18:06:17;-2.60;99.90
13375;DHT22;6756;51.354;15.754;2023-03-01T18:10:20;-2.70;99.90
13375;DHT22;6756;51.354;15.754;2023-03-01T18:14:21;-2.80;99.90
13375;DHT22;6756;51.354;15.754;2023-03-01T18:18:22;-2.90;99.90
13375;DHT22;6756;51.354;15.754;2023-03-01T18:22:23;-3.00;99.90
13375;DHT22;6756;51.354;15.754;2023-03-01T18:26:25;-3.10;99.90
13375;DHT22;6756;51.354;15.754;2023-03-01T18:30:27;-3.20;99.90
13375;DHT22;6756;51.354;15.754;2023-03-01T18:34:28;-3.20;99.90
13375;DHT22;6756;51.354;15.754;2023-03-01T18:38:29;-3.30;99.90
13375;DHT22;6756;51.354;15.754;2023-03-01T18:42:30;-3.30;99.90
13375;DHT22;6756;51.354;15.754;2023-03-01T18:46:31;-3.40;99.90
13375;DHT22;6756;51.354;15.754;2023-03-01T18:50:32;-3.40;1.00
13375;DHT22;6756;51.354;15.754;2023-03-01T18:54:33;-3.50;1.00
13375;DHT22;6756;51.354;15.754;2023-03-01T18:58:36;-3.50;1.00
13375;DHT22;6756;51.354;15.754;2023-03-01T19:02:37;-3.60;1.00
13375;DHT22;6756;51.354;15.754;2023-03-01T19:06:38;-3.70;1.00
13375;DHT22;6756;51.354;15.754;2023-03-01T19:10:39;-3.80;1.00
13375;DHT22;6756;51.354;15.754;2023-03-01T19:14:40;-3.90;1.00
13375;DHT22;6756;51.354;15.754;2023-03-01T19:18:42;-4.00;1.00
13375;DHT22;6756;51.354;15.754;2023-03-01T19:22:49;-4.00;1.00
13375;DHT22;6756;51.354;15.754;2023-03-01T19:26:50;-4.10;15.80
13375;DHT22;6756;51.354;15.754;2023-03-01T19:30:51;-4.10;56.00
13375;DHT22;6756;51.354;15.754;2023-03-01T19:34:51;-4.20;99.90
13375;DHT22;6756;51.354;15.754;2023-03-01T19:38:52;-4.30;99.90
13375;DHT22;6756;51.354;15.754;2023-03-01T19:42:53;-4.30;99.90
13375;DHT22;6756;51.354;15.754;2023-03-01T19:46:55;-4.40;99.90
13375;DHT22;6756;51.354;15.754;2023-03-01T19:50:59;-4.40;99.90
13375;DHT22;6756;51.354;15.754;2023-03-01T19:55:00;-4.50;99.90
13375;DHT22;6756;51.354;15.754;2023-03-01T19:59:01;-4.50;99.90
13375;DHT22;6756;51.354;15.754;2023-03-01T20:03:04;-4.50;99.90
13375;DHT22;6756;51.354;15.754;2023-03-01T20:07:05;-4.60;99.90
13375;DHT22;6756;51.354;15.754;2023-03-01T20:11:11;-4.60;1.00
13375;DHT22;6756;51.354;15.754;2023-03-01T20:15:13;-4.70;1.00
13375;DHT22;6756;51.354;15.754;2023-03-01T20:19:13;-4.70;1.00
13375;DHT22;6756;51.354;15.754;2023-03-01T20:23:15;-4.80;1.00
13375;DHT22;6756;51.354;15.754;2023-03-01T20:27:16;-4.80;13.10
13375;DHT22;6756;51.354;15.754;2023-03-01T20:31:19;-4.90;16.60
13375;DHT22;6756;51.354;15.754;2023-03-01T20:35:20;-5.00;99.40
13375;DHT22;6756;51.354;15.754;2023-03-01T20:39:21;-5.00;99.90
13375;DHT22;6756;51.354;15.754;2023-03-01T20:43:22;-5.00;99.90
13375;DHT22;6756;51.354;15.754;2023-03-01T20:47:23;-5.10;99.90
13375;DHT22;6756;51.354;15.754;2023-03-01T20:51:24;-5.10;99.90
13375;DHT22;6756;51.354;15.754;2023-03-01T20:55:25;-5.20;99.90
13375;DHT22;6756;51.354;15.754;2023-03-01T20:59:26;-5.30;99.90
13375;DHT22;6756;51.354;15.754;2023-03-01T21:03:27;-5.30;1.00
13375;DHT22;6756;51.354;15.754;2023-03-01T21:07:28;-5.30;1.00
13375;DHT22;6756;51.354;15.754;2023-03-01T21:11:29;-5.30;58.30
13375;DHT22;6756;51.354;15.754;2023-03-01T21:15:30;-5.40;61.70
13375;DHT22;6756;51.354;15.754;2023-03-01T21:19:30;-5.50;1.00
13375;DHT22;6756;51.354;15.754;2023-03-01T21:23:36;-5.70;1.00
13375;DHT22;6756;51.354;15.754;2023-03-01T21:27:38;-5.80;1.00
13375;DHT22;6756;51.354;15.754;2023-03-01T21:31:39;-5.80;54.50
13375;DHT22;6756;51.354;15.754;2023-03-01T21:35:40;-5.90;99.90
13375;DHT22;6756;51.354;15.754;2023-03-01T21:39:40;-5.80;1.00
13375;DHT22;6756;51.354;15.754;2023-03-01T21:43:43;-5.80;99.90
13375;DHT22;6756;51.354;15.754;2023-03-01T21:47:44;-5.90;99.90
13375;DHT22;6756;51.354;15.754;2023-03-01T21:51:45;-6.00;99.90
13375;DHT22;6756;51.354;15.754;2023-03-01T21:55:47;-6.10;83.90
13375;DHT22;6756;51.354;15.754;2023-03-01T21:59:48;-6.20;1.00
13375;DHT22;6756;51.354;15.754;2023-03-01T22:03:49;-6.20;47.10
13375;DHT22;6756;51.354;15.754;2023-03-01T22:07:51;-6.20;99.90
13375;DHT22;6756;51.354;15.754;2023-03-01T22:11:54;-6.20;1.00
13375;DHT22;6756;51.354;15.754;2023-03-01T22:16:01;-6.30;1.20
13375;DHT22;6756;51.354;15.754;2023-03-01T22:20:02;-6.30;1.00
13375;DHT22;6756;51.354;15.754;2023-03-01T22:24:04;-6.40;1.00
13375;DHT22;6756;51.354;15.754;2023-03-01T22:28:05;-6.40;1.00
13375;DHT22;6756;51.354;15.754;2023-03-01T22:32:05;-6.40;1.00
13375;DHT22;6756;51.354;15.754;2023-03-01T22:36:07;-6.50;1.00
13375;DHT22;6756;51.354;15.754;2023-03-01T22:40:09;-6.60;1.00
13375;DHT22;6756;51.354;15.754;2023-03-01T22:44:11;-6.60;1.00
13375;DHT22;6756;51.354;15.754;2023-03-01T22:48:13;-6.70;99.90
13375;DHT22;6756;51.354;15.754;2023-03-01T22:52:14;-6.60;99.90
13375;DHT22;6756;51.354;15.754;2023-03-01T22:56:23;-6.70;1.00
13375;DHT22;6756;51.354;15.754;2023-03-01T23:00:25;-6.70;99.90
13375;DHT22;6756;51.354;15.754;2023-03-01T23:04:26;-6.60;1.00
13375;DHT22;6756;51.354;15.754;2023-03-01T23:08:27;-6.60;99.90
13375;DHT22;6756;51.354;15.754;2023-03-01T23:12:28;-6.60;16.10
13375;DHT22;6756;51.354;15.754;2023-03-01T23:16:29;-6.40;1.00
13375;DHT22;6756;51.354;15.754;2023-03-01T23:20:30;-6.40;1.00
13375;DHT22;6756;51.354;15.754;2023-03-01T23:24:34;-6.30;99.90
13375;DHT22;6756;51.354;15.754;2023-03-01T23:28:35;-6.40;99.90
13375;DHT22;6756;51.354;15.754;2023-03-01T23:32:39;-6.50;99.90
13375;DHT22;6756;51.354;15.754;2023-03-01T23:36:40;-6.60;99.90
13375;DHT22;6756;51.354;15.754;2023-03-01T23:40:44;-6.70;41.00
13375;DHT22;6756;51.354;15.754;2023-03-01T23:44:45;-6.80;1.00
13375;DHT22;6756;51.354;15.754;2023-03-01T23:48:46;-6.90;99.90
13375;DHT22;6756;51.354;15.754;2023-03-01T23:52:48;-6.90;99.90
13375;DHT22;6756;51.354;15.754;2023-03-01T23:56:49;-6.90;99.90
